Novi, MI

4:24 AM EST on December 29, 2014 (GMT -0500)
Novi - Ladybug Park | Change Station
CLOSE
Current Station
Personal Weather Station
Location: Novi, MI
Elevation: 918 ft
Nearby Weather Stations

Elev 918 ft 42.47 °N, 83.49 °W | Updated 9 seconds ago

Partly Cloudy
Partly Cloudy
23.9 °F
Feels Like 24 °F
N
0.0
Wind Variable Wind from NW
Gusts 4.0 mph

Today
High -- | Low -- °F
--% Chance of Precip.
Yesterday
High -- | Low -- °F
Precip. -- in
8:03 AM 5:09 PM
First Quarter, 57% visible
Pressure 30.24 in
Visibility 10.0 miles
Clouds Clear
Windchill 24 °F
Dew Point 18 °F
Humidity 78%
Rainfall 0.00 in
Snow Depth Not available.
UV 0 out of 12
Pollen .10 out of 12
Air Quality Not available.
Flu Activity Not available.
METAR KPTK 290853Z AUTO 32010KT 10SM CLR M04/M09 A3020 RMK AO2 SLP239 T10391094 51006 $

More Conditions Fewer Conditions

Pressure 30.24 in
Visibility 10.0 miles
Clouds Clear
Windchill 24 °F
Dew Point 18 °F
Humidity 78%
Rainfall 0.00 in
Snow Depth Not available.
UV 0 out of 12
Pollen .10 out of 12
Air Quality Not available.
Flu Activity Not available.
METAR KPTK 290853Z AUTO 32010KT 10SM CLR M04/M09 A3020 RMK AO2 SLP239 T10391094 51006 $

More Conditions Fewer Conditions

10-Day Weather Forecast

Almanac

Astronomy

Dec. 29, 2014 Rise Set
Actual Time
Civil Twilight
Nautical Twilight
Astronomical Twilight
Moon
Length of Visible Light
Length of Day
Tomorrow will be .
, % of the Moon is Illuminated

Today's Extremes

State Highs State Lows

Community

WunderPhotos

Upload Photos

1,781,562 photos uploaded!

WunderBlogs® & News

Nearby

Air Quality

  Air Quality AQ Index Pollutant
Not available.

Snow Depth

Station Depth Elevation

Earthquake Activity

City Distance Mag. Time & Date
Minimum magnitude displayed is 2.5.

Coastal Water Temperatures

Place Temperature

Nearby Weather Stations